Time;durP1;ratioP1;P1;durP2;ratioP2;P2;SDS_P1;SDS_P2;PMS_P1;PMS_P2;Temp;Humidity;BMP_temperature;BMP_pressure;BME280_temperature;BME280_humidity;BME280_pressure;Samples;Min_cycle;Max_cycle;Signal;HPM_P1;HPM_P2
2021/06/24 00:00:38;;;;;;;29.15;8.65;;;;;;;;;;4998164;28;20080;-73
2021/06/24 00:03:07;;;;;;;19.25;8.32;;;;;;;;;;4998562;28;20473;-72
2021/06/24 00:05:33;;;;;;;13.50;7.43;;;;;;;;;;4998591;28;20033;-73
2021/06/24 00:07:59;;;;;;;17.55;8.30;;;;;;;;;;4998569;28;20041;-73
2021/06/24 00:10:26;;;;;;;15.57;7.95;;;;;;;;;;4998562;28;20473;-71
2021/06/24 00:12:52;;;;;;;16.67;7.93;;;;;;;;;;4998645;28;20033;-71
2021/06/24 00:15:18;;;;;;;23.17;8.40;;;;;;;;;;4998308;28;20038;-71
2021/06/24 00:17:44;;;;;;;17.52;8.25;;;;;;;;;;5013776;28;20045;-70
2021/06/24 00:20:10;;;;;;;19.08;8.25;;;;;;;;;;5015306;28;20417;-71
2021/06/24 00:22:36;;;;;;;22.80;8.32;;;;;;;;;;5010696;28;20049;-70
2021/06/24 00:25:03;;;;;;;20.52;8.15;;;;;;;;;;4997462;28;20042;-71
2021/06/24 00:27:29;;;;;;;15.07;7.93;;;;;;;;;;4998773;28;20113;-70
2021/06/24 00:29:55;;;;;;;16.33;8.10;;;;;;;;;;5017984;28;20485;-70
2021/06/24 00:32:21;;;;;;;16.73;8.50;;;;;;;;;;5012350;28;20025;-70
2021/06/24 00:34:47;;;;;;;23.15;11.73;;;;;;;;;;5011689;28;20544;-71
2021/06/24 00:37:13;;;;;;;23.55;13.90;;;;;;;;;;5014222;28;20049;-71
2021/06/24 00:39:40;;;;;;;16.52;8.77;;;;;;;;;;5011461;28;20107;-72
2021/06/24 00:42:06;;;;;;;23.13;9.90;;;;;;;;;;5011396;28;20514;-73
2021/06/24 00:44:32;;;;;;;23.77;8.85;;;;;;;;;;5000513;28;20046;-76
2021/06/24 00:46:58;;;;;;;17.23;8.55;;;;;;;;;;4995335;28;20053;-72
2021/06/24 00:49:25;;;;;;;21.45;9.68;;;;;;;;;;4995241;28;20384;-72
2021/06/24 00:51:51;;;;;;;19.15;7.97;;;;;;;;;;4995633;28;20105;-70
2021/06/24 00:54:17;;;;;;;17.92;8.07;;;;;;;;;;4995117;28;20116;-71
2021/06/24 00:56:43;;;;;;;17.85;8.90;;;;;;;;;;4995057;28;20033;-71
2021/06/24 00:59:09;;;;;;;19.15;9.13;;;;;;;;;;4995112;28;20028;-71
2021/06/24 01:01:36;;;;;;;17.38;8.15;;;;;;;;;;5007272;28;20392;-69
2021/06/24 01:04:03;;;;;;;16.25;8.82;;;;;;;;;;4994730;28;20503;-71
2021/06/24 01:06:29;;;;;;;20.40;8.65;;;;;;;;;;4994617;28;20026;-72
2021/06/24 01:08:55;;;;;;;16.80;7.80;;;;;;;;;;4994535;28;20022;-72
2021/06/24 01:11:21;;;;;;;18.92;8.07;;;;;;;;;;4994612;28;20057;-72
2021/06/24 01:13:47;;;;;;;18.83;8.43;;;;;;;;;;4994514;28;20511;-72
2021/06/24 01:16:14;;;;;;;13.95;7.97;;;;;;;;;;4995278;28;20054;-70
2021/06/24 01:18:40;;;;;;;24.75;8.48;;;;;;;;;;4998610;28;20157;-70
2021/06/24 01:21:06;;;;;;;19.27;8.10;;;;;;;;;;4994378;28;20026;-70
2021/06/24 01:23:39;;;;;;;17.25;8.32;;;;;;;;;;4999632;28;20030;-71
2021/06/24 01:26:05;;;;;;;20.90;8.18;;;;;;;;;;4994383;28;20026;-71
2021/06/24 01:28:31;;;;;;;20.45;8.07;;;;;;;;;;5007206;28;20033;-71
2021/06/24 01:30:57;;;;;;;18.90;8.70;;;;;;;;;;5013138;28;20508;-72
2021/06/24 01:33:25;;;;;;;16.75;8.07;;;;;;;;;;5001121;28;20022;-71
2021/06/24 01:35:56;;;;;;;20.25;8.40;;;;;;;;;;5014105;28;20080;-71
2021/06/24 01:38:22;;;;;;;22.90;9.15;;;;;;;;;;5013692;28;20032;-72
2021/06/24 01:40:48;;;;;;;18.38;9.35;;;;;;;;;;5013753;28;20077;-72
2021/06/24 01:43:14;;;;;;;30.13;9.20;;;;;;;;;;5013674;28;20037;-72
2021/06/24 01:45:51;;;;;;;22.20;8.40;;;;;;;;;;5013595;28;20049;-71
2021/06/24 01:48:18;;;;;;;19.65;8.93;;;;;;;;;;5012670;28;20062;-72
2021/06/24 01:50:44;;;;;;;15.05;7.95;;;;;;;;;;5013543;28;20465;-79
2021/06/24 01:53:10;;;;;;;21.65;8.82;;;;;;;;;;4998993;28;20033;-76
2021/06/24 01:55:39;;;;;;;15.48;8.30;;;;;;;;;;5013794;28;20021;-77
2021/06/24 01:58:06;;;;;;;16.77;8.95;;;;;;;;;;5013712;28;20014;-76
2021/06/24 02:00:32;;;;;;;18.90;9.20;;;;;;;;;;5013257;28;20095;-74
2021/06/24 02:02:58;;;;;;;15.65;8.40;;;;;;;;;;5013218;28;20034;-72
2021/06/24 02:05:24;;;;;;;15.65;7.93;;;;;;;;;;5013188;28;20076;-72
2021/06/24 02:07:51;;;;;;;20.35;8.63;;;;;;;;;;5013155;28;20476;-71
2021/06/24 02:10:18;;;;;;;19.08;8.95;;;;;;;;;;5012909;28;20049;-71
2021/06/24 02:12:44;;;;;;;22.23;8.95;;;;;;;;;;4997918;28;20030;-71
2021/06/24 02:15:12;;;;;;;18.88;8.98;;;;;;;;;;4993221;28;20026;-70
2021/06/24 02:17:38;;;;;;;19.50;9.05;;;;;;;;;;4993338;28;20144;-71
2021/06/24 02:20:06;;;;;;;25.75;9.18;;;;;;;;;;4993411;28;20193;-70
2021/06/24 02:22:32;;;;;;;21.73;8.85;;;;;;;;;;4998067;28;20034;-68
2021/06/24 02:24:58;;;;;;;15.32;8.30;;;;;;;;;;4993030;28;20030;-69
2021/06/24 02:27:24;;;;;;;16.75;8.68;;;;;;;;;;5006041;28;20517;-69
2021/06/24 02:29:50;;;;;;;17.65;8.30;;;;;;;;;;5012454;28;20018;-68
2021/06/24 02:32:16;;;;;;;19.45;8.57;;;;;;;;;;5012817;28;20030;-68
2021/06/24 02:34:43;;;;;;;19.75;8.38;;;;;;;;;;5012709;28;20017;-68
2021/06/24 02:37:09;;;;;;;18.05;8.95;;;;;;;;;;5012716;28;20357;-68
2021/06/24 02:39:35;;;;;;;17.25;8.95;;;;;;;;;;5012644;28;20097;-69
2021/06/24 02:42:01;;;;;;;19.77;8.65;;;;;;;;;;5012673;28;20041;-71
2021/06/24 02:44:27;;;;;;;17.42;9.13;;;;;;;;;;5012613;28;20029;-71
2021/06/24 02:46:53;;;;;;;19.42;9.07;;;;;;;;;;5012422;28;20136;-71
2021/06/24 02:49:20;;;;;;;14.82;8.13;;;;;;;;;;5012875;28;20104;-72
2021/06/24 02:51:47;;;;;;;24.38;9.50;;;;;;;;;;5012472;28;20032;-72
2021/06/24 02:54:13;;;;;;;21.95;9.82;;;;;;;;;;5012887;28;20030;-74
2021/06/24 02:56:40;;;;;;;17.48;9.45;;;;;;;;;;5012445;28;20144;-73
2021/06/24 02:59:06;;;;;;;13.38;8.70;;;;;;;;;;5012141;28;20083;-71
2021/06/24 03:01:33;;;;;;;22.73;9.52;;;;;;;;;;5012097;28;20476;-70
2021/06/24 03:03:59;;;;;;;17.75;8.80;;;;;;;;;;5012426;28;20065;-71
2021/06/24 03:06:26;;;;;;;16.65;8.60;;;;;;;;;;5012426;28;20021;-73
2021/06/24 03:08:52;;;;;;;21.38;9.20;;;;;;;;;;5012037;28;20021;-73
2021/06/24 03:11:19;;;;;;;16.95;9.23;;;;;;;;;;5012423;28;20041;-72
2021/06/24 03:13:47;;;;;;;17.95;9.10;;;;;;;;;;5012441;28;20025;-73
2021/06/24 03:16:14;;;;;;;18.15;8.95;;;;;;;;;;5012119;28;20424;-73
2021/06/24 03:18:40;;;;;;;15.93;8.30;;;;;;;;;;5027388;28;20575;-74
2021/06/24 03:21:06;;;;;;;20.63;8.75;;;;;;;;;;5012325;28;20034;-75
2021/06/24 03:23:32;;;;;;;22.60;8.48;;;;;;;;;;5011990;28;20464;-75
2021/06/24 03:25:58;;;;;;;18.00;10.57;;;;;;;;;;5011923;28;20033;-71
2021/06/24 03:28:24;;;;;;;15.68;9.27;;;;;;;;;;5012083;28;20097;-70
2021/06/24 03:30:50;;;;;;;15.65;9.30;;;;;;;;;;5011878;28;20550;-69
2021/06/24 03:33:16;;;;;;;26.02;9.73;;;;;;;;;;5011928;28;20054;-69
2021/06/24 03:35:45;;;;;;;21.52;9.10;;;;;;;;;;5012037;28;20026;-69
2021/06/24 03:38:11;;;;;;;21.30;8.88;;;;;;;;;;5011835;28;20420;-70
2021/06/24 03:40:37;;;;;;;20.58;8.50;;;;;;;;;;5011984;28;20025;-68
2021/06/24 03:43:03;;;;;;;19.80;9.18;;;;;;;;;;5011881;28;20041;-69
2021/06/24 03:45:29;;;;;;;22.10;8.32;;;;;;;;;;5011686;28;20077;-69
2021/06/24 03:47:56;;;;;;;20.45;9.45;;;;;;;;;;5011514;28;20056;-69
2021/06/24 03:50:22;;;;;;;18.98;8.85;;;;;;;;;;4999087;28;20030;-69
2021/06/24 03:52:48;;;;;;;21.33;9.38;;;;;;;;;;5011818;28;20026;-69
2021/06/24 03:55:19;;;;;;;23.05;9.57;;;;;;;;;;5011793;28;20022;-78
2021/06/24 03:57:46;;;;;;;18.38;8.70;;;;;;;;;;5011921;28;20469;-74
2021/06/24 04:00:12;;;;;;;17.30;8.60;;;;;;;;;;5011778;28;20029;-75
2021/06/24 04:02:38;;;;;;;19.23;10.00;;;;;;;;;;5011596;28;20516;-75
2021/06/24 04:05:05;;;;;;;22.38;9.52;;;;;;;;;;5011745;28;20057;-75
2021/06/24 04:07:31;;;;;;;19.77;9.38;;;;;;;;;;5011671;28;20033;-75
2021/06/24 04:09:57;;;;;;;16.50;9.93;;;;;;;;;;5012351;28;20030;-76
2021/06/24 04:12:23;;;;;;;17.83;10.25;;;;;;;;;;5015316;28;20030;-75
2021/06/24 04:14:49;;;;;;;16.40;9.57;;;;;;;;;;5015271;28;20026;-76
2021/06/24 04:17:15;;;;;;;19.67;9.90;;;;;;;;;;5015104;28;20056;-76
2021/06/24 04:19:43;;;;;;;22.67;11.38;;;;;;;;;;5030812;28;20068;-75
2021/06/24 04:22:10;;;;;;;24.55;10.68;;;;;;;;;;5015477;28;20041;-74
2021/06/24 04:24:36;;;;;;;21.40;10.20;;;;;;;;;;5015443;28;20452;-75
2021/06/24 04:27:02;;;;;;;17.65;11.27;;;;;;;;;;5012020;28;20108;-78
2021/06/24 04:29:28;;;;;;;17.52;9.50;;;;;;;;;;5011683;28;20026;-77
2021/06/24 04:31:54;;;;;;;19.98;10.40;;;;;;;;;;5015059;28;20129;-74
2021/06/24 04:34:20;;;;;;;19.15;10.60;;;;;;;;;;5015213;28;20026;-73
2021/06/24 04:36:46;;;;;;;18.17;10.32;;;640.60;1920.00;;;;;;5014967;28;20026;-72
2021/06/24 04:39:12;;;;;;;22.98;11.05;;;640.50;1920.00;;;;;;5014934;28;20033;-71
2021/06/24 04:41:38;;;;;;;24.77;12.35;;;640.50;1920.00;;;;;;5014664;28;20524;-71
2021/06/24 04:44:04;;;;;;;20.75;10.48;;;640.40;1945.60;;;;;;5015125;28;20104;-71
2021/06/24 04:46:30;;;;;;;23.25;11.10;;;640.30;1971.20;;;;;;5013443;28;20519;-73
2021/06/24 04:48:56;;;;;;;20.10;13.27;;;640.50;1945.60;;;;;;5015059;28;20034;-72
2021/06/24 04:51:21;;;;;;;21.20;12.38;;;640.40;1945.60;;;;;;5014433;28;20033;-71
2021/06/24 04:53:47;;;;;;;23.92;11.13;;;640.50;1945.60;;;;;;5014532;28;20034;-72
2021/06/24 04:56:13;;;;;;;24.45;11.50;;;;;;;;;;5014708;28;20205;-74
2021/06/24 04:58:39;;;;;;;24.05;11.23;;;640.90;1920.00;;;;;;5014339;28;20022;-71
2021/06/24 05:01:05;;;;;;;25.88;11.68;;;665.60;1920.00;;;;;;5014277;28;20358;-71
2021/06/24 05:03:30;;;;;;;22.85;11.77;;;640.70;1920.00;;;;;;5014400;28;20036;-70
2021/06/24 05:05:56;;;;;;;26.42;12.52;;;640.70;1920.00;;;;;;5014415;28;20029;-70
2021/06/24 05:08:24;;;;;;;26.35;11.70;;;640.60;1945.60;;;;;;5014105;28;20034;-72
2021/06/24 05:10:50;;;;;;;23.75;10.77;;;640.70;1945.60;;;;;;5014211;28;20076;-70
2021/06/24 05:13:16;;;;;;;23.58;11.70;;;640.60;1945.60;;;;;;5013063;28;20021;-71
2021/06/24 05:15:43;;;;;;;23.42;11.50;;;640.60;1945.60;;;;;;5013530;28;20050;-67
2021/06/24 05:18:11;;;;;;;53.35;30.10;;;640.90;1945.60;;;;;;5014175;28;20033;-68
2021/06/24 05:20:39;;;;;;;28.50;14.07;;;665.60;1920.00;;;;;;5013538;28;20022;-67
2021/06/24 05:23:06;;;;;;;21.23;11.52;;;665.60;1945.60;;;;;;5013653;28;20030;-69
2021/06/24 05:25:32;;;;;;;23.13;12.07;;;;;;;;;;5013874;28;20081;-74
2021/06/24 05:27:58;;;;;;;27.00;11.73;;;;;;;;;;5013970;28;20026;-76
2021/06/24 05:30:25;;;;;;;26.88;12.23;;;;;;;;;;5014071;28;20018;-76
2021/06/24 05:32:51;;;;;;;26.10;12.68;;;;;;;;;;5013714;28;20049;-75
2021/06/24 05:35:17;;;;;;;22.17;10.90;;;;;;;;;;5013905;28;20025;-76
2021/06/24 05:37:43;;;;;;;24.20;11.93;;;;;;;;;;5013762;28;20029;-72
2021/06/24 05:40:09;;;;;;;28.77;10.48;;;;;;;;;;5013723;28;20496;-72
2021/06/24 05:42:35;;;;;;;20.10;11.40;;;;;;;;;;5013801;28;20038;-69
2021/06/24 05:45:01;;;;;;;22.42;11.50;;;;;;;;;;5013775;28;20362;-71
2021/06/24 05:47:27;;;;;;;20.77;10.80;;;;;;;;;;5013772;28;20034;-71
2021/06/24 05:49:53;;;;;;;21.92;9.77;;;;;;;;;;5013827;28;20022;-70
2021/06/24 05:52:19;;;;;;;24.80;10.45;;;;;;;;;;5013753;28;20037;-71
2021/06/24 05:54:46;;;;;;;23.50;11.13;;;;;;;;;;5013501;28;20018;-72
2021/06/24 05:57:12;;;;;;;23.02;11.55;;;;;;;;;;5013635;28;20029;-68
2021/06/24 05:59:38;;;;;;;23.08;11.68;;;;;;;;;;5013485;28;20033;-69
2021/06/24 06:02:04;;;;;;;29.60;12.75;;;;;;;;;;5013167;28;20100;-73
2021/06/24 06:04:30;;;;;;;16.85;11.93;;;;;;;;;;5013245;28;20030;-74
2021/06/24 06:06:56;;;;;;;20.63;12.27;;;716.90;1817.60;;;;;;5013117;28;20033;-72
2021/06/24 06:09:22;;;;;;;18.33;12.35;;;716.80;1766.40;;;;;;5013117;28;20025;-75
2021/06/24 06:11:47;;;;;;;20.88;11.85;;;716.90;1843.20;;;;;;5012900;28;20032;-74
2021/06/24 06:14:13;;;;;;;24.83;12.00;;;717.00;1766.40;;;;;;5013267;28;20022;-75
2021/06/24 06:16:39;;;;;;;27.30;12.52;;;717.10;1843.20;;;;;;5012847;28;20484;-71
2021/06/24 06:19:05;;;;;;;25.58;11.02;;;717.20;1817.60;;;;;;5013006;28;20041;-75
2021/06/24 06:21:31;;;;;;;21.65;10.85;;;717.40;1740.80;;;;;;5012801;28;20033;-79
2021/06/24 06:23:58;;;;;;;26.02;11.95;;;717.50;1715.20;;;;;;5012106;28;20022;-73
2021/06/24 06:26:24;;;;;;;26.92;11.10;;;717.70;1740.80;;;;;;5004255;28;20393;-71
2021/06/24 06:28:51;;;;;;;20.80;11.48;;;742.50;1766.40;;;;;;5008262;28;20025;-72
2021/06/24 06:31:18;;;;;;;27.33;11.05;;;;;;;;;;5010804;28;20058;-72
2021/06/24 06:33:44;;;;;;;22.15;10.93;;;;;;;;;;5010351;28;20044;-70
2021/06/24 06:36:10;;;;;;;19.70;11.75;;;;;;;;;;5011170;28;20088;-73
2021/06/24 06:38:36;;;;;;;28.00;12.38;;;;;;;;;;5011871;28;20025;-72
2021/06/24 06:41:02;;;;;;;25.05;10.35;;;;;;;;;;5009254;28;20022;-71
2021/06/24 06:43:28;;;;;;;23.63;11.50;;;;;;;;;;5007353;28;20064;-70
2021/06/24 06:45:54;;;;;;;21.40;11.75;;;;;;;;;;5010167;28;20032;-74
2021/06/24 06:48:21;;;;;;;20.90;11.23;;;;;;;;;;5009175;28;20539;-73
2021/06/24 06:50:47;;;;;;;26.20;12.63;;;;;;;;;;5010872;28;20026;-73
2021/06/24 06:53:14;;;;;;;35.13;19.35;;;;;;;;;;5010304;28;20018;-74
2021/06/24 06:55:40;;;;;;;23.58;14.10;;;;;;;;;;5011348;28;20112;-79
2021/06/24 06:58:06;;;;;;;61.78;44.58;;;;;;;;;;5011329;28;20017;-77
2021/06/24 07:00:34;;;;;;;29.38;17.20;;;;;;;;;;5006008;28;20117;-79
2021/06/24 07:03:00;;;;;;;34.85;18.05;;;;;;;;;;4999743;28;20615;-78
2021/06/24 07:05:27;;;;;;;32.60;14.93;;;;;;;;;;5007247;28;20033;-70
2021/06/24 07:07:53;;;;;;;35.78;19.98;;;;;;;;;;5010699;28;20025;-68
2021/06/24 07:10:19;;;;;;;41.70;23.80;;;;;;;;;;4999929;28;20030;-66
2021/06/24 07:12:45;;;;;;;37.08;21.65;;;;;;;;;;4992432;28;20054;-67
2021/06/24 07:15:13;;;;;;;39.78;24.05;;;;;;;;;;4992181;28;20030;-65
2021/06/24 07:17:39;;;;;;;38.53;24.73;;;768.20;1664.00;;;;;;4992211;28;20103;-64
2021/06/24 07:20:06;;;;;;;36.90;20.92;;;768.10;1664.00;;;;;;4997009;28;20066;-65
2021/06/24 07:22:32;;;;;;;40.42;21.67;;;768.10;1664.00;;;;;;4999939;28;20030;-64
2021/06/24 07:24:57;;;;;;;79.32;54.55;;;743.30;1664.00;;;;;;5009280;28;20034;-66
2021/06/24 07:27:23;;;;;;;199.93;178.48;;;743.30;1689.60;;;;;;5011253;28;20033;-66
2021/06/24 07:29:49;;;;;;;181.45;160.05;;;743.30;1664.00;;;;;;5011965;28;20018;-65
2021/06/24 07:32:15;;;;;;;217.10;191.40;;;743.30;1689.60;;;;;;5011988;28;20037;-63
2021/06/24 07:34:41;;;;;;;142.30;104.53;;;768.10;1664.00;;;;;;5011717;28;20428;-68
2021/06/24 07:37:07;;;;;;;89.28;59.03;;;;;;;;;;5006328;28;20105;-66
2021/06/24 07:39:33;;;;;;;81.57;53.63;;;;;;;;;;5009625;28;20364;-66
2021/06/24 07:41:59;;;;;;;70.03;43.40;;;;;;;;;;4992081;28;20042;-68
2021/06/24 07:44:25;;;;;;;63.78;41.20;;;;;;;;;;5003854;28;20022;-64
2021/06/24 07:46:51;;;;;;;141.07;114.88;;;768.50;1587.20;;;;;;5006007;28;20025;-68
2021/06/24 07:49:16;;;;;;;175.82;139.68;;;768.50;1587.20;;;;;;5008289;28;20516;-64
2021/06/24 07:51:43;;;;;;;188.70;150.57;;;768.50;1587.20;;;;;;5009819;28;20030;-64
2021/06/24 07:54:09;;;;;;;114.10;84.90;;;768.50;1561.60;;;;;;5005774;28;20034;-64
2021/06/24 07:56:34;;;;;;;81.15;57.63;;;768.60;1561.60;;;;;;5005786;28;20029;-64
2021/06/24 07:59:00;;;;;;;88.88;67.65;;;768.60;1587.20;;;;;;4999140;28;20056;-62
2021/06/24 08:01:26;;;;;;;124.95;102.20;;;768.60;1561.60;;;;;;5008922;28;20040;-65
2021/06/24 08:03:54;;;;;;;152.95;126.07;;;;;;;;;;4996150;28;20426;-66
2021/06/24 08:06:20;;;;;;;313.42;279.75;;;793.70;1510.40;;;;;;5013227;28;20652;-67
2021/06/24 08:08:45;;;;;;;177.10;150.40;;;793.70;1536.00;;;;;;4996363;28;20084;-65
2021/06/24 08:11:11;;;;;;;141.20;119.95;;;768.90;1561.60;;;;;;4995989;28;20113;-66
2021/06/24 08:13:37;;;;;;;164.73;124.90;;;793.60;1561.60;;;;;;5005596;28;20029;-64
2021/06/24 08:16:03;;;;;;;122.95;83.90;;;793.70;1561.60;;;;;;5007997;28;20042;-66
2021/06/24 08:18:29;;;;;;;321.02;270.15;;;793.70;1510.40;;;;;;5001443;28;20034;-65
2021/06/24 08:20:55;;;;;;;346.77;309.85;;;768.90;1561.60;;;;;;4995781;28;20022;-65
2021/06/24 08:23:22;;;;;;;312.60;279.20;;;;;;;;;;5000623;28;20477;-68
2021/06/24 08:25:48;;;;;;;95.03;69.22;;;;;;;;;;5000245;28;20109;-73
2021/06/24 08:28:15;;;;;;;64.55;43.75;;;;;;;;;;5010972;28;20057;-74
2021/06/24 08:30:44;;;;;;;49.20;27.92;;;;;;;;;;5003956;28;20101;-75
2021/06/24 08:33:11;;;;;;;53.45;33.42;;;819.60;1228.80;;;;;;5006396;28;20022;-72
2021/06/24 08:35:36;;;;;;;54.00;32.92;;;819.80;1280.00;;;;;;4995436;28;20030;-74
2021/06/24 08:38:02;;;;;;;33.22;12.77;;;819.70;1305.60;;;;;;4995215;28;20015;-74
2021/06/24 08:40:29;;;;;;;112.07;67.15;;;;;;;;;;4995118;28;20032;-74
2021/06/24 08:42:58;;;;;;;47.10;16.23;;;;;;;;;;4995073;28;20037;-75
2021/06/24 08:45:24;;;;;;;200.60;135.57;;;;;;;;;;5013606;28;20026;-75
2021/06/24 08:47:51;;;;;;;202.85;138.90;;;;;;;;;;5001066;28;20053;-76
2021/06/24 08:50:18;;;;;;;129.57;75.32;;;;;;;;;;5004362;28;20029;-74
2021/06/24 08:52:47;;;;;;;136.15;81.47;;;;;;;;;;5014131;28;20022;-73
2021/06/24 08:55:13;;;;;;;64.20;33.88;;;845.50;1177.60;;;;;;4999070;28;20030;-74
2021/06/24 08:57:39;;;;;;;144.73;87.22;;;845.50;1152.00;;;;;;5005188;28;20104;-74
2021/06/24 09:00:06;;;;;;;147.00;85.75;;;845.40;1177.60;;;;;;5011277;28;20097;-74
2021/06/24 09:02:43;;;;;;;103.28;60.78;;;845.60;1177.60;;;;;;4994793;28;20039;-73
2021/06/24 09:05:10;;;;;;;90.95;48.15;;;;;;;;;;4994748;28;20077;-75
2021/06/24 09:07:56;;;;;;;75.00;40.63;;;;;;;;;;4995146;28;20026;-74
2021/06/24 09:10:24;;;;;;;50.63;24.02;;;;;;;;;;4994785;28;20428;-75
2021/06/24 09:12:52;;;;;;;167.35;121.07;;;;;;;;;;4994702;28;20089;-75
2021/06/24 09:15:18;;;;;;;54.38;24.40;;;;;;;;;;4994350;28;20535;-74
2021/06/24 09:17:44;;;;;;;81.80;46.97;;;;;;;;;;4994422;28;20050;-75
2021/06/24 09:20:19;;;;;;;61.63;21.15;;;;;;;;;;4994460;28;20080;-73
2021/06/24 09:23:08;;;;;;;43.03;13.65;;;871.30;972.80;;;;;;4997588;28;20034;-75
2021/06/24 09:25:35;;;;;;;41.72;14.20;;;;;;;;;;4994651;28;20030;-75
2021/06/24 09:28:01;;;;;;;41.67;17.65;;;;;;;;;;4999359;28;20431;-76
2021/06/24 09:30:32;;;;;;;38.28;13.60;;;;;;;;;;5013962;28;20502;-75
2021/06/24 09:32:57;;;;;;;;;;;;;;;;;;5014098;28;20076;-75
2021/06/24 09:35:29;;;;;;;42.47;12.20;;;;;;;;;;5014319;28;20267;-76
2021/06/24 09:38:00;;;;;;;31.48;10.05;;;896.70;947.20;;;;;;5029097;28;20448;-74
2021/06/24 09:40:46;;;;;;;32.22;9.65;;;896.50;972.80;;;;;;5013702;28;20030;-74
2021/06/24 09:43:39;;;;;;;29.20;10.48;;;896.50;921.60;;;;;;5013895;28;20037;-75
2021/06/24 09:46:18;;;;;;;34.20;10.00;;;;;;;;;;5013945;28;20384;-75
2021/06/24 09:48:45;;;;;;;36.63;9.52;;;;;;;;;;5013449;28;20026;-75
2021/06/24 09:51:16;;;;;;;30.35;10.38;;;;;;;;;;5013513;28;20053;-75
2021/06/24 09:53:53;;;;;;;38.35;9.95;;;922.10;819.20;;;;;;5013275;28;20022;-73
2021/06/24 09:56:33;;;;;;;35.95;10.52;;;922.10;793.60;;;;;;5013511;28;20350;-73
2021/06/24 09:59:04;;;;;;;44.05;10.63;;;922.00;870.40;;;;;;5013345;28;20018;-74
2021/06/24 10:01:32;;;;;;;33.35;9.73;;;922.00;793.60;;;;;;5013211;28;20096;-74
2021/06/24 10:03:59;;;;;;;33.58;9.27;;;921.80;844.80;;;;;;5013298;28;20029;-75
2021/06/24 10:06:26;;;;;;;39.70;10.90;;;922.00;793.60;;;;;;5013104;28;20030;-73
2021/06/24 10:08:53;;;;;;;42.30;10.77;;;922.00;844.80;;;;;;5011945;28;20370;-73
2021/06/24 10:11:20;;;;;;;40.42;10.50;;;921.90;844.80;;;;;;5012344;28;20472;-73
2021/06/24 10:13:46;;;;;;;34.65;9.60;;;922.00;819.20;;;;;;5013380;28;20400;-75
2021/06/24 10:16:12;;;;;;;39.55;9.30;;;921.90;844.80;;;;;;5010434;28;20038;-72
2021/06/24 10:18:40;;;;;;;33.58;9.40;;;922.00;768.00;;;;;;5008279;28;20064;-74
2021/06/24 10:21:07;;;;;;;34.38;9.52;;;;;;;;;;5012779;28;20026;-74
2021/06/24 10:23:33;;;;;;;40.90;10.30;;;922.20;844.80;;;;;;5012758;28;20030;-74
2021/06/24 10:26:01;;;;;;;37.03;12.13;;;922.00;793.60;;;;;;5005343;28;20084;-74
2021/06/24 10:28:26;;;;;;;31.90;10.13;;;922.10;844.80;;;;;;5011785;28;20022;-74
2021/06/24 10:30:52;;;;;;;42.53;10.52;;;922.00;844.80;;;;;;5010641;28;20022;-73
2021/06/24 10:33:18;;;;;;;30.65;9.73;;;921.90;844.80;;;;;;5009747;28;20112;-75
2021/06/24 10:35:51;;;;;;;40.92;10.20;;;922.00;819.20;;;;;;5011070;28;20172;-75
2021/06/24 10:38:18;;;;;;;34.75;10.00;;;922.20;793.60;;;;;;5011241;28;20025;-74
2021/06/24 10:40:54;;;;;;;30.60;10.02;;;922.10;844.80;;;;;;5011839;28;20021;-74
2021/06/24 10:43:22;;;;;;;31.15;10.15;;;922.30;819.20;;;;;;4999359;28;20038;-75
2021/06/24 10:45:48;;;;;;;36.50;9.35;;;922.20;768.00;;;;;;4998493;28;20069;-74
2021/06/24 10:48:26;;;;;;;25.65;9.85;;;922.30;844.80;;;;;;4992860;28;20022;-74
2021/06/24 10:51:00;;;;;;;30.95;9.38;;;922.20;844.80;;;;;;4992499;28;20388;-74
2021/06/24 10:53:26;;;;;;;34.03;9.98;;;922.00;793.60;;;;;;4998971;28;20015;-74
2021/06/24 10:55:52;;;;;;;35.38;9.85;;;922.40;768.00;;;;;;4992682;28;20019;-75
2021/06/24 10:58:19;;;;;;;42.83;10.35;;;;;;;;;;4992673;28;20388;-76
2021/06/24 11:00:45;;;;;;;37.63;11.27;;;;;;;;;;4992782;28;20021;-75
2021/06/24 11:03:14;;;;;;;30.00;9.63;;;947.50;716.80;;;;;;4992301;28;20073;-73
2021/06/24 11:05:42;;;;;;;34.22;9.43;;;947.30;768.00;;;;;;4993019;28;20010;-73
2021/06/24 11:08:13;;;;;;;36.20;9.55;;;947.30;716.80;;;;;;4992489;28;20034;-74
2021/06/24 11:10:57;;;;;;;41.25;17.77;;;922.50;768.00;;;;;;5003441;28;20369;-74
2021/06/24 11:16:21;;;;;;;121.10;77.43;;;947.30;793.60;;;;;;4998595;28;20467;-74
2021/06/24 11:18:57;;;;;;;110.43;69.45;;;947.50;742.40;;;;;;4992719;28;20041;-74
2021/06/24 11:21:29;;;;;;;83.90;47.65;;;922.50;793.60;;;;;;4998513;28;20476;-74
2021/06/24 11:24:01;;;;;;;42.58;13.07;;;922.50;793.60;;;;;;5003273;28;20042;-74
2021/06/24 11:26:29;;;;;;;44.42;11.82;;;947.20;742.40;;;;;;5003397;28;20014;-75
2021/06/24 11:29:18;;;;;;;54.17;18.77;;;947.60;716.80;;;;;;5008201;28;20037;-74
2021/06/24 11:31:59;;;;;;;83.05;45.22;;;947.50;768.00;;;;;;5012160;28;20105;-75
2021/06/24 11:35:03;;;;;;;55.03;25.58;;;922.50;793.60;;;;;;5012224;28;20033;-74
2021/06/24 11:37:30;;;;;;;46.95;18.77;;;922.50;768.00;;;;;;5011755;28;20396;-74
2021/06/24 11:39:59;;;;;;;49.70;18.67;;;922.50;742.40;;;;;;5012023;28;20030;-74
2021/06/24 11:42:30;;;;;;;45.10;15.63;;;922.50;768.00;;;;;;5012047;28;20399;-75
2021/06/24 11:44:56;;;;;;;138.57;94.82;;;922.40;768.00;;;;;;5012183;28;20032;-75
2021/06/24 11:47:25;;;;;;;96.13;52.75;;;922.30;768.00;;;;;;5002296;28;20034;-75
2021/06/24 12:03:49;;;;;;;46.08;12.85;;;948.10;640.00;;;;;;4993696;28;20030;-74
2021/06/24 12:06:15;;;;;;;42.10;11.90;;;;;;;;;;5007566;28;20432;-81
2021/06/24 12:08:41;;;;;;;36.90;12.48;;;973.00;640.00;;;;;;5007137;28;20061;-77
2021/06/24 12:11:12;;;;;;;38.40;12.00;;;948.10;691.20;;;;;;5001058;28;20053;-73
2021/06/24 12:13:43;;;;;;;42.25;13.43;;;973.50;640.00;;;;;;4996221;28;20026;-74
2021/06/24 12:16:13;;;;;;;53.10;16.83;;;973.40;691.20;;;;;;5001274;28;20550;-74
2021/06/24 12:18:40;;;;;;;46.27;14.20;;;;;;;;;;5006609;28;20030;-71
2021/06/24 12:21:08;;;;;;;41.47;13.68;;;;;;;;;;5010708;28;20030;-71
2021/06/24 12:23:40;;;;;;;43.83;14.32;;;;;;;;;;5011194;28;20021;-70
2021/06/24 12:26:06;;;;;;;45.85;12.30;;;;;;;;;;5011671;28;20539;-76
2021/06/24 12:28:32;;;;;;;42.00;14.10;;;;;;;;;;5011957;28;20064;-76
2021/06/24 12:30:58;;;;;;;47.22;12.35;;;;;;;;;;4998811;28;20027;-76
2021/06/24 12:33:26;;;;;;;34.92;12.75;;;;;;;;;;5015619;28;20480;-75
2021/06/24 12:35:53;;;;;;;49.10;13.90;;;;;;;;;;5015547;28;20055;-76
2021/06/24 12:38:28;;;;;;;40.10;11.80;;;;;;;;;;5015502;28;20025;-76
2021/06/24 12:40:57;;;;;;;36.45;12.55;;;;;;;;;;5015569;28;20028;-77
2021/06/24 12:43:24;;;;;;;45.13;10.98;;;;;;;;;;5001581;28;20121;-76
2021/06/24 12:45:54;;;;;;;42.67;11.90;;;;;;;;;;5015694;28;20120;-76
2021/06/24 12:48:40;;;;;;;41.72;10.85;;;;;;;;;;5015170;28;20096;-76
2021/06/24 12:51:18;;;;;;;34.90;10.95;;;;;;;;;;5030591;28;20060;-76
2021/06/24 12:53:46;;;;;;;41.88;11.60;;;;;;;;;;5015352;28;20025;-76
2021/06/24 12:56:28;;;;;;;43.70;10.57;;;;;;;;;;5015508;28;20026;-76
2021/06/24 12:58:55;;;;;;;33.40;9.48;;;;;;;;;;5015027;28;20026;-76
2021/06/24 13:01:22;;;;;;;36.40;9.98;;;;;;;;;;5015248;28;20128;-77
2021/06/24 13:03:50;;;;;;;40.55;10.30;;;;;;;;;;5030284;28;20030;-75
2021/06/24 13:06:17;;;;;;;34.60;9.05;;;;;;;;;;5030461;28;20030;-76
2021/06/24 13:09:12;;;;;;;38.50;10.88;;;;;;;;;;5014847;28;20476;-76
2021/06/24 13:11:38;;;;;;;38.40;10.27;;;;;;;;;;5014502;28;20045;-78
2021/06/24 13:14:15;;;;;;;45.20;10.52;;;998.40;742.40;;;;;;5014728;28;20026;-76
2021/06/24 13:16:47;;;;;;;35.13;11.10;;;973.70;716.80;;;;;;5014641;28;20478;-76
2021/06/24 13:19:28;;;;;;;37.20;10.00;;;973.60;716.80;;;;;;5030215;28;20057;-76
2021/06/24 13:21:53;;;;;;;;;;;973.50;716.80;;;;;;5015046;28;20026;-76
2021/06/24 13:24:19;;;;;;;38.53;10.23;;;973.50;716.80;;;;;;5014810;28;19913;-76
2021/06/24 13:26:45;;;;;;;29.83;9.70;;;973.40;691.20;;;;;;5014821;28;20084;-76
2021/06/24 13:29:20;;;;;;;35.80;10.35;;;973.50;691.20;;;;;;5014636;28;20484;-76
2021/06/24 13:31:48;;;;;;;34.90;10.32;;;973.30;691.20;;;;;;5127588;23;20050;-75
2021/06/24 13:34:15;;;;;;;37.75;10.02;;;973.40;716.80;;;;;;4995003;28;20035;-76
2021/06/24 13:36:43;;;;;;;32.75;10.75;;;973.50;691.20;;;;;;4995327;28;20015;-75
2021/06/24 13:39:16;;;;;;;46.00;11.52;;;973.50;665.60;;;;;;4994872;28;20121;-75
2021/06/24 13:41:44;;;;;;;37.17;10.38;;;973.20;716.80;;;;;;4980818;28;20039;-76
2021/06/24 13:44:12;;;;;;;37.25;10.30;;;973.00;742.40;;;;;;4994922;28;20027;-75